sensor_id;sensor_type;location;lat;lon;timestamp;temperature;humidity
14946;DHT22;7567;50.916;6.900;2023-10-08T12:48:09;21.40;99.90
14946;DHT22;7567;50.916;6.900;2023-10-08T12:50:35;21.50;99.90
14946;DHT22;7567;50.916;6.900;2023-10-08T12:53:11;21.40;99.90
14946;DHT22;7567;50.916;6.900;2023-10-08T12:55:40;21.50;99.90
14946;DHT22;7567;50.916;6.900;2023-10-08T12:58:07;21.30;99.90
14946;DHT22;7567;50.916;6.900;2023-10-08T13:00:37;21.20;99.90
14946;DHT22;7567;50.916;6.900;2023-10-08T13:03:08;21.20;99.90
14946;DHT22;7567;50.916;6.900;2023-10-08T13:05:44;21.10;99.90
14946;DHT22;7567;50.916;6.900;2023-10-08T13:08:10;21.10;99.90
14946;DHT22;7567;50.916;6.900;2023-10-08T13:10:41;21.10;99.90
14946;DHT22;7567;50.916;6.900;2023-10-08T13:13:10;21.20;99.90
14946;DHT22;7567;50.916;6.900;2023-10-08T13:15:38;21.10;99.90
14946;DHT22;7567;50.916;6.900;2023-10-08T13:18:04;21.20;99.90
14946;DHT22;7567;50.916;6.900;2023-10-08T13:20:30;21.20;99.90
14946;DHT22;7567;50.916;6.900;2023-10-08T13:23:03;21.30;99.90
14946;DHT22;7567;50.916;6.900;2023-10-08T13:25:32;21.30;99.90
14946;DHT22;7567;50.916;6.900;2023-10-08T13:28:02;21.40;99.90
14946;DHT22;7567;50.916;6.900;2023-10-08T13:30:28;21.40;99.90
14946;DHT22;7567;50.916;6.900;2023-10-08T13:32:54;21.30;99.90
14946;DHT22;7567;50.916;6.900;2023-10-08T13:35:20;21.30;99.90
14946;DHT22;7567;50.916;6.900;2023-10-08T13:37:46;21.40;99.90
14946;DHT22;7567;50.916;6.900;2023-10-08T13:40:14;21.30;99.90
14946;DHT22;7567;50.916;6.900;2023-10-08T13:42:44;21.20;99.90
14946;DHT22;7567;50.916;6.900;2023-10-08T13:45:10;21.10;99.90
14946;DHT22;7567;50.916;6.900;2023-10-08T13:47:51;21.10;99.90
14946;DHT22;7567;50.916;6.900;2023-10-08T13:50:17;21.00;99.90
14946;DHT22;7567;50.916;6.900;2023-10-08T13:52:44;21.10;99.90
14946;DHT22;7567;50.916;6.900;2023-10-08T13:55:10;21.10;99.90
14946;DHT22;7567;50.916;6.900;2023-10-08T13:57:40;21.10;99.90
14946;DHT22;7567;50.916;6.900;2023-10-08T14:00:14;21.10;99.90
14946;DHT22;7567;50.916;6.900;2023-10-08T14:02:42;21.00;99.90
14946;DHT22;7567;50.916;6.900;2023-10-08T14:05:10;21.10;99.90
14946;DHT22;7567;50.916;6.900;2023-10-08T14:07:41;21.30;99.90
14946;DHT22;7567;50.916;6.900;2023-10-08T14:10:10;21.60;99.90
14946;DHT22;7567;50.916;6.900;2023-10-08T14:12:45;21.70;99.90
14946;DHT22;7567;50.916;6.900;2023-10-08T14:15:16;21.90;99.90
14946;DHT22;7567;50.916;6.900;2023-10-08T14:17:44;21.80;99.90
14946;DHT22;7567;50.916;6.900;2023-10-08T14:20:23;21.70;99.90
14946;DHT22;7567;50.916;6.900;2023-10-08T14:22:49;21.60;99.90
14946;DHT22;7567;50.916;6.900;2023-10-08T14:25:26;21.40;99.90
14946;DHT22;7567;50.916;6.900;2023-10-08T14:28:09;21.20;99.90
14946;DHT22;7567;50.916;6.900;2023-10-08T14:30:50;21.10;99.90
14946;DHT22;7567;50.916;6.900;2023-10-08T14:33:39;21.00;99.90
14946;DHT22;7567;50.916;6.900;2023-10-08T14:36:24;21.00;99.90
14946;DHT22;7567;50.916;6.900;2023-10-08T14:39:09;20.90;99.90
14946;DHT22;7567;50.916;6.900;2023-10-08T14:41:54;20.80;99.90
14946;DHT22;7567;50.916;6.900;2023-10-08T14:44:38;20.80;99.90
14946;DHT22;7567;50.916;6.900;2023-10-08T14:47:05;20.70;99.90
14946;DHT22;7567;50.916;6.900;2023-10-08T14:49:32;20.60;99.90
14946;DHT22;7567;50.916;6.900;2023-10-08T14:52:00;20.60;99.90
14946;DHT22;7567;50.916;6.900;2023-10-08T14:54:50;20.60;99.90
14946;DHT22;7567;50.916;6.900;2023-10-08T14:57:17;20.60;99.90
14946;DHT22;7567;50.916;6.900;2023-10-08T14:59:44;20.50;99.90
14946;DHT22;7567;50.916;6.900;2023-10-08T15:02:10;20.50;99.90
14946;DHT22;7567;50.916;6.900;2023-10-08T15:04:37;20.40;99.90
14946;DHT22;7567;50.916;6.900;2023-10-08T15:07:08;20.30;99.90
14946;DHT22;7567;50.916;6.900;2023-10-08T15:09:37;20.40;99.90
14946;DHT22;7567;50.916;6.900;2023-10-08T15:12:05;20.60;99.90
14946;DHT22;7567;50.916;6.900;2023-10-08T15:14:35;20.60;99.90
14946;DHT22;7567;50.916;6.900;2023-10-08T15:17:01;20.60;99.90
14946;DHT22;7567;50.916;6.900;2023-10-08T15:19:27;20.70;99.90
14946;DHT22;7567;50.916;6.900;2023-10-08T15:21:53;20.70;99.90
14946;DHT22;7567;50.916;6.900;2023-10-08T15:24:20;20.70;99.90
14946;DHT22;7567;50.916;6.900;2023-10-08T15:26:51;20.70;99.90
14946;DHT22;7567;50.916;6.900;2023-10-08T15:29:22;20.80;99.90
14946;DHT22;7567;50.916;6.900;2023-10-08T15:31:52;20.80;99.90
14946;DHT22;7567;50.916;6.900;2023-10-08T15:34:23;20.90;99.90
14946;DHT22;7567;50.916;6.900;2023-10-08T15:36:55;21.00;99.90
14946;DHT22;7567;50.916;6.900;2023-10-08T15:39:21;21.00;99.90
14946;DHT22;7567;50.916;6.900;2023-10-08T15:41:51;21.00;99.90
14946;DHT22;7567;50.916;6.900;2023-10-08T15:44:20;20.90;99.90
14946;DHT22;7567;50.916;6.900;2023-10-08T15:46:49;20.80;99.90
14946;DHT22;7567;50.916;6.900;2023-10-08T15:49:18;20.70;99.90
14946;DHT22;7567;50.916;6.900;2023-10-08T15:51:48;20.70;99.90
14946;DHT22;7567;50.916;6.900;2023-10-08T15:54:15;20.70;99.90
14946;DHT22;7567;50.916;6.900;2023-10-08T15:56:46;20.60;99.90
14946;DHT22;7567;50.916;6.900;2023-10-08T15:59:12;20.50;99.90
14946;DHT22;7567;50.916;6.900;2023-10-08T16:01:38;20.40;99.90
14946;DHT22;7567;50.916;6.900;2023-10-08T16:04:04;20.40;99.90
14946;DHT22;7567;50.916;6.900;2023-10-08T16:06:32;20.30;99.90
14946;DHT22;7567;50.916;6.900;2023-10-08T16:08:58;20.20;99.90
14946;DHT22;7567;50.916;6.900;2023-10-08T16:11:24;20.10;99.90
14946;DHT22;7567;50.916;6.900;2023-10-08T16:13:50;20.00;99.90
14946;DHT22;7567;50.916;6.900;2023-10-08T16:16:16;19.80;99.90
14946;DHT22;7567;50.916;6.900;2023-10-08T16:18:42;19.70;99.90
14946;DHT22;7567;50.916;6.900;2023-10-08T16:21:11;19.60;99.90
14946;DHT22;7567;50.916;6.900;2023-10-08T16:23:39;19.50;99.90
14946;DHT22;7567;50.916;6.900;2023-10-08T16:26:09;19.40;99.90
14946;DHT22;7567;50.916;6.900;2023-10-08T16:28:35;19.30;99.90
14946;DHT22;7567;50.916;6.900;2023-10-08T16:31:04;19.20;99.90
14946;DHT22;7567;50.916;6.900;2023-10-08T16:33:32;19.20;99.90
14946;DHT22;7567;50.916;6.900;2023-10-08T16:35:58;19.10;99.90
14946;DHT22;7567;50.916;6.900;2023-10-08T16:38:26;19.00;99.90
14946;DHT22;7567;50.916;6.900;2023-10-08T16:40:52;18.90;99.90
14946;DHT22;7567;50.916;6.900;2023-10-08T16:43:18;18.80;99.90
14946;DHT22;7567;50.916;6.900;2023-10-08T16:45:45;18.80;99.90
14946;DHT22;7567;50.916;6.900;2023-10-08T16:48:12;18.70;99.90
14946;DHT22;7567;50.916;6.900;2023-10-08T16:50:41;18.50;99.90
14946;DHT22;7567;50.916;6.900;2023-10-08T16:53:08;18.50;99.90
14946;DHT22;7567;50.916;6.900;2023-10-08T16:55:34;18.50;99.90
14946;DHT22;7567;50.916;6.900;2023-10-08T16:58:00;18.40;99.90
14946;DHT22;7567;50.916;6.900;2023-10-08T17:00:27;18.30;99.90
14946;DHT22;7567;50.916;6.900;2023-10-08T17:02:57;18.20;99.90
14946;DHT22;7567;50.916;6.900;2023-10-08T17:05:25;18.10;99.90
14946;DHT22;7567;50.916;6.900;2023-10-08T17:07:52;17.90;99.90
14946;DHT22;7567;50.916;6.900;2023-10-08T17:10:19;17.90;99.90
14946;DHT22;7567;50.916;6.900;2023-10-08T17:12:46;17.80;99.90
14946;DHT22;7567;50.916;6.900;2023-10-08T17:15:18;17.80;99.90
14946;DHT22;7567;50.916;6.900;2023-10-08T17:17:44;17.80;99.90
14946;DHT22;7567;50.916;6.900;2023-10-08T17:20:10;17.80;99.90
14946;DHT22;7567;50.916;6.900;2023-10-08T17:22:38;17.60;99.90
14946;DHT22;7567;50.916;6.900;2023-10-08T17:25:04;17.60;99.90
14946;DHT22;7567;50.916;6.900;2023-10-08T17:27:35;17.70;99.90
14946;DHT22;7567;50.916;6.900;2023-10-08T17:30:01;17.60;99.90
14946;DHT22;7567;50.916;6.900;2023-10-08T17:32:32;17.50;99.90
14946;DHT22;7567;50.916;6.900;2023-10-08T17:35:02;17.40;99.90
14946;DHT22;7567;50.916;6.900;2023-10-08T17:37:28;17.30;99.90
14946;DHT22;7567;50.916;6.900;2023-10-08T17:39:54;17.30;99.90
14946;DHT22;7567;50.916;6.900;2023-10-08T17:42:20;17.30;99.90
14946;DHT22;7567;50.916;6.900;2023-10-08T17:44:46;17.20;99.90
14946;DHT22;7567;50.916;6.900;2023-10-08T17:47:12;17.20;99.90
14946;DHT22;7567;50.916;6.900;2023-10-08T17:49:39;17.10;99.90
14946;DHT22;7567;50.916;6.900;2023-10-08T17:52:14;17.00;99.90
14946;DHT22;7567;50.916;6.900;2023-10-08T17:54:40;16.90;99.90
14946;DHT22;7567;50.916;6.900;2023-10-08T17:57:08;16.80;99.90
14946;DHT22;7567;50.916;6.900;2023-10-08T17:59:39;16.80;99.90
14946;DHT22;7567;50.916;6.900;2023-10-08T18:02:05;16.70;99.90
14946;DHT22;7567;50.916;6.900;2023-10-08T18:04:32;16.70;99.90
14946;DHT22;7567;50.916;6.900;2023-10-08T18:06:59;16.70;99.90
14946;DHT22;7567;50.916;6.900;2023-10-08T18:09:25;16.70;99.90
14946;DHT22;7567;50.916;6.900;2023-10-08T18:11:54;16.60;99.90
14946;DHT22;7567;50.916;6.900;2023-10-08T18:14:22;16.50;99.90
14946;DHT22;7567;50.916;6.900;2023-10-08T18:16:48;16.40;99.90
14946;DHT22;7567;50.916;6.900;2023-10-08T18:19:15;16.30;99.90
14946;DHT22;7567;50.916;6.900;2023-10-08T18:21:42;16.20;99.90
14946;DHT22;7567;50.916;6.900;2023-10-08T18:24:11;16.10;99.90
14946;DHT22;7567;50.916;6.900;2023-10-08T18:26:38;16.20;99.90
14946;DHT22;7567;50.916;6.900;2023-10-08T18:29:10;16.20;99.90
14946;DHT22;7567;50.916;6.900;2023-10-08T18:31:39;16.10;99.90
14946;DHT22;7567;50.916;6.900;2023-10-08T18:34:05;16.10;99.90
14946;DHT22;7567;50.916;6.900;2023-10-08T18:36:31;16.10;99.90
14946;DHT22;7567;50.916;6.900;2023-10-08T18:38:57;16.10;99.90
14946;DHT22;7567;50.916;6.900;2023-10-08T18:41:23;16.10;99.90
14946;DHT22;7567;50.916;6.900;2023-10-08T18:43:52;15.90;99.90
14946;DHT22;7567;50.916;6.900;2023-10-08T18:46:19;15.90;99.90
14946;DHT22;7567;50.916;6.900;2023-10-08T18:48:46;15.90;99.90
14946;DHT22;7567;50.916;6.900;2023-10-08T18:51:15;15.80;99.90
14946;DHT22;7567;50.916;6.900;2023-10-08T18:53:44;15.90;99.90
14946;DHT22;7567;50.916;6.900;2023-10-08T18:56:13;16.00;99.90
14946;DHT22;7567;50.916;6.900;2023-10-08T18:58:44;15.80;99.90
14946;DHT22;7567;50.916;6.900;2023-10-08T19:01:14;15.70;99.90
14946;DHT22;7567;50.916;6.900;2023-10-08T19:03:41;15.80;99.90
14946;DHT22;7567;50.916;6.900;2023-10-08T19:06:10;15.80;99.90
14946;DHT22;7567;50.916;6.900;2023-10-08T19:08:38;15.70;99.90
14946;DHT22;7567;50.916;6.900;2023-10-08T19:11:05;15.70;99.90
14946;DHT22;7567;50.916;6.900;2023-10-08T19:13:36;15.70;99.90
14946;DHT22;7567;50.916;6.900;2023-10-08T19:16:04;15.70;99.90
14946;DHT22;7567;50.916;6.900;2023-10-08T19:18:33;15.70;99.90
14946;DHT22;7567;50.916;6.900;2023-10-08T19:21:05;15.50;99.90
14946;DHT22;7567;50.916;6.900;2023-10-08T19:23:33;15.50;99.90
14946;DHT22;7567;50.916;6.900;2023-10-08T19:26:00;15.60;99.90
14946;DHT22;7567;50.916;6.900;2023-10-08T19:28:26;15.50;99.90
14946;DHT22;7567;50.916;6.900;2023-10-08T19:30:52;15.60;99.90
14946;DHT22;7567;50.916;6.900;2023-10-08T19:33:21;15.60;99.90
14946;DHT22;7567;50.916;6.900;2023-10-08T19:35:53;15.50;99.90
14946;DHT22;7567;50.916;6.900;2023-10-08T19:38:20;15.40;99.90
14946;DHT22;7567;50.916;6.900;2023-10-08T19:40:48;15.40;99.90
14946;DHT22;7567;50.916;6.900;2023-10-08T19:43:14;15.40;99.90
14946;DHT22;7567;50.916;6.900;2023-10-08T19:45:40;15.40;99.90
14946;DHT22;7567;50.916;6.900;2023-10-08T19:48:08;15.20;99.90
14946;DHT22;7567;50.916;6.900;2023-10-08T19:50:39;15.20;99.90
14946;DHT22;7567;50.916;6.900;2023-10-08T19:53:13;15.30;99.90
14946;DHT22;7567;50.916;6.900;2023-10-08T19:55:46;15.30;99.90
14946;DHT22;7567;50.916;6.900;2023-10-08T19:58:18;15.20;99.90
14946;DHT22;7567;50.916;6.900;2023-10-08T20:00:46;15.20;99.90
14946;DHT22;7567;50.916;6.900;2023-10-08T20:03:12;15.20;99.90
14946;DHT22;7567;50.916;6.900;2023-10-08T20:05:42;15.20;99.90
14946;DHT22;7567;50.916;6.900;2023-10-08T20:08:09;15.20;99.90
14946;DHT22;7567;50.916;6.900;2023-10-08T20:10:39;15.10;99.90
14946;DHT22;7567;50.916;6.900;2023-10-08T20:13:05;15.10;99.90
14946;DHT22;7567;50.916;6.900;2023-10-08T20:15:33;15.10;99.90
14946;DHT22;7567;50.916;6.900;2023-10-08T20:17:59;15.10;99.90
14946;DHT22;7567;50.916;6.900;2023-10-08T20:20:26;14.90;99.90
14946;DHT22;7567;50.916;6.900;2023-10-08T20:22:56;14.90;99.90
14946;DHT22;7567;50.916;6.900;2023-10-08T20:25:31;14.90;99.90
14946;DHT22;7567;50.916;6.900;2023-10-08T20:27:57;14.90;99.90
14946;DHT22;7567;50.916;6.900;2023-10-08T20:30:23;14.80;99.90
14946;DHT22;7567;50.916;6.900;2023-10-08T20:32:50;14.90;99.90
14946;DHT22;7567;50.916;6.900;2023-10-08T20:35:20;14.90;99.90
14946;DHT22;7567;50.916;6.900;2023-10-08T20:37:51;14.80;99.90
14946;DHT22;7567;50.916;6.900;2023-10-08T20:40:17;14.70;99.90
14946;DHT22;7567;50.916;6.900;2023-10-08T20:42:51;14.70;99.90
14946;DHT22;7567;50.916;6.900;2023-10-08T20:45:18;14.70;99.90
14946;DHT22;7567;50.916;6.900;2023-10-08T20:47:46;14.70;99.90
14946;DHT22;7567;50.916;6.900;2023-10-08T20:50:13;14.50;99.90
14946;DHT22;7567;50.916;6.900;2023-10-08T20:52:39;14.50;99.90
14946;DHT22;7567;50.916;6.900;2023-10-08T20:55:06;14.60;99.90
14946;DHT22;7567;50.916;6.900;2023-10-08T20:57:47;14.60;99.90
14946;DHT22;7567;50.916;6.900;2023-10-08T21:00:16;14.60;99.90
14946;DHT22;7567;50.916;6.900;2023-10-08T21:02:50;14.50;99.90
14946;DHT22;7567;50.916;6.900;2023-10-08T21:05:20;14.50;99.90
14946;DHT22;7567;50.916;6.900;2023-10-08T21:07:47;14.50;99.90
14946;DHT22;7567;50.916;6.900;2023-10-08T21:10:14;14.50;99.90
14946;DHT22;7567;50.916;6.900;2023-10-08T21:12:41;14.40;99.90
14946;DHT22;7567;50.916;6.900;2023-10-08T21:15:12;14.30;99.90
14946;DHT22;7567;50.916;6.900;2023-10-08T21:17:40;14.30;99.90
14946;DHT22;7567;50.916;6.900;2023-10-08T21:20:11;14.30;99.90
14946;DHT22;7567;50.916;6.900;2023-10-08T21:22:41;14.30;99.90
14946;DHT22;7567;50.916;6.900;2023-10-08T21:25:10;14.20;99.90
14946;DHT22;7567;50.916;6.900;2023-10-08T21:27:38;14.10;99.90
14946;DHT22;7567;50.916;6.900;2023-10-08T21:30:06;14.00;99.90
14946;DHT22;7567;50.916;6.900;2023-10-08T21:32:38;14.00;99.90
14946;DHT22;7567;50.916;6.900;2023-10-08T21:35:09;14.10;99.90
14946;DHT22;7567;50.916;6.900;2023-10-08T21:37:37;14.20;99.90
14946;DHT22;7567;50.916;6.900;2023-10-08T21:40:04;14.10;99.90
14946;DHT22;7567;50.916;6.900;2023-10-08T21:42:42;14.10;99.90
14946;DHT22;7567;50.916;6.900;2023-10-08T21:45:10;14.10;99.90
14946;DHT22;7567;50.916;6.900;2023-10-08T21:47:37;14.10;99.90
14946;DHT22;7567;50.916;6.900;2023-10-08T21:50:04;14.20;99.90
14946;DHT22;7567;50.916;6.900;2023-10-08T21:52:40;14.10;99.90
14946;DHT22;7567;50.916;6.900;2023-10-08T21:55:07;14.10;99.90
14946;DHT22;7567;50.916;6.900;2023-10-08T21:57:34;14.20;99.90
14946;DHT22;7567;50.916;6.900;2023-10-08T22:00:13;14.30;99.90
14946;DHT22;7567;50.916;6.900;2023-10-08T22:02:53;14.20;99.90
14946;DHT22;7567;50.916;6.900;2023-10-08T22:05:22;14.20;99.90
14946;DHT22;7567;50.916;6.900;2023-10-08T22:07:49;14.10;99.90
14946;DHT22;7567;50.916;6.900;2023-10-08T22:10:16;14.20;99.90
14946;DHT22;7567;50.916;6.900;2023-10-08T22:12:47;14.20;99.90
14946;DHT22;7567;50.916;6.900;2023-10-08T22:15:15;14.20;99.90
14946;DHT22;7567;50.916;6.900;2023-10-08T22:17:51;14.30;99.90
14946;DHT22;7567;50.916;6.900;2023-10-08T22:20:17;14.20;99.90
14946;DHT22;7567;50.916;6.900;2023-10-08T22:23:06;14.10;99.90
14946;DHT22;7567;50.916;6.900;2023-10-08T22:25:33;14.10;99.90
14946;DHT22;7567;50.916;6.900;2023-10-08T22:28:05;14.10;99.90
14946;DHT22;7567;50.916;6.900;2023-10-08T22:30:52;14.00;99.90
14946;DHT22;7567;50.916;6.900;2023-10-08T22:33:24;14.00;99.90
14946;DHT22;7567;50.916;6.900;2023-10-08T22:35:54;14.00;99.90
14946;DHT22;7567;50.916;6.900;2023-10-08T22:38:21;14.00;99.90
14946;DHT22;7567;50.916;6.900;2023-10-08T22:40:50;14.00;99.90
14946;DHT22;7567;50.916;6.900;2023-10-08T22:43:22;14.10;99.90
14946;DHT22;7567;50.916;6.900;2023-10-08T22:45:49;14.00;99.90
14946;DHT22;7567;50.916;6.900;2023-10-08T22:48:18;14.10;99.90
14946;DHT22;7567;50.916;6.900;2023-10-08T22:51:05;14.10;99.90
14946;DHT22;7567;50.916;6.900;2023-10-08T22:53:49;14.10;99.90
14946;DHT22;7567;50.916;6.900;2023-10-08T22:56:18;14.00;99.90
14946;DHT22;7567;50.916;6.900;2023-10-08T22:58:45;14.00;99.90
14946;DHT22;7567;50.916;6.900;2023-10-08T23:01:17;14.00;99.90
14946;DHT22;7567;50.916;6.900;2023-10-08T23:03:48;14.00;99.90
14946;DHT22;7567;50.916;6.900;2023-10-08T23:06:18;14.00;99.90
14946;DHT22;7567;50.916;6.900;2023-10-08T23:08:45;14.00;99.90
14946;DHT22;7567;50.916;6.900;2023-10-08T23:11:13;14.00;99.90
14946;DHT22;7567;50.916;6.900;2023-10-08T23:13:41;14.00;99.90
14946;DHT22;7567;50.916;6.900;2023-10-08T23:16:10;14.00;99.90
14946;DHT22;7567;50.916;6.900;2023-10-08T23:18:40;13.90;99.90
14946;DHT22;7567;50.916;6.900;2023-10-08T23:21:07;13.90;99.90
14946;DHT22;7567;50.916;6.900;2023-10-08T23:23:36;13.80;99.90
14946;DHT22;7567;50.916;6.900;2023-10-08T23:26:12;13.80;99.90
14946;DHT22;7567;50.916;6.900;2023-10-08T23:28:42;13.90;99.90
14946;DHT22;7567;50.916;6.900;2023-10-08T23:31:09;13.90;99.90
14946;DHT22;7567;50.916;6.900;2023-10-08T23:33:36;13.90;99.90
14946;DHT22;7567;50.916;6.900;2023-10-08T23:36:09;13.80;99.90
14946;DHT22;7567;50.916;6.900;2023-10-08T23:38:40;13.90;99.90
14946;DHT22;7567;50.916;6.900;2023-10-08T23:41:09;13.80;99.90
14946;DHT22;7567;50.916;6.900;2023-10-08T23:43:45;13.80;99.90
14946;DHT22;7567;50.916;6.900;2023-10-08T23:46:28;13.80;99.90
14946;DHT22;7567;50.916;6.900;2023-10-08T23:48:59;13.80;99.90
14946;DHT22;7567;50.916;6.900;2023-10-08T23:51:35;13.80;99.90
14946;DHT22;7567;50.916;6.900;2023-10-08T23:54:06;13.80;99.90
14946;DHT22;7567;50.916;6.900;2023-10-08T23:56:53;13.90;99.90
14946;DHT22;7567;50.916;6.900;2023-10-08T23:59:24;13.90;99.90
